sensor_id;sensor_type;location;lat;lon;timestamp;pressure;altitude;pressure_sealevel;temperature;humidity
70815;BME280;58428;49.478;10.986;2023-10-08T00:01:08;98993.88;;;17.23;100.00
70815;BME280;58428;49.478;10.986;2023-10-08T00:03:37;98996.28;;;17.25;100.00
70815;BME280;58428;49.478;10.986;2023-10-08T00:06:04;99005.63;;;17.24;100.00
70815;BME280;58428;49.478;10.986;2023-10-08T00:08:32;99004.81;;;17.23;100.00
70815;BME280;58428;49.478;10.986;2023-10-08T00:10:59;99003.22;;;17.22;100.00
70815;BME280;58428;49.478;10.986;2023-10-08T00:13:32;99001.22;;;17.19;100.00
70815;BME280;58428;49.478;10.986;2023-10-08T00:16:01;98992.91;;;17.16;100.00
70815;BME280;58428;49.478;10.986;2023-10-08T00:18:26;98992.13;;;17.15;100.00
70815;BME280;58428;49.478;10.986;2023-10-08T00:20:53;98999.44;;;17.11;100.00
70815;BME280;58428;49.478;10.986;2023-10-08T00:23:48;99000.78;;;17.17;100.00
70815;BME280;58428;49.478;10.986;2023-10-08T00:26:19;98997.69;;;17.19;100.00
70815;BME280;58428;49.478;10.986;2023-10-08T00:29:00;99001.56;;;17.18;100.00
70815;BME280;58428;49.478;10.986;2023-10-08T00:31:26;98996.44;;;17.16;100.00
70815;BME280;58428;49.478;10.986;2023-10-08T00:33:57;98997.91;;;17.14;100.00
70815;BME280;58428;49.478;10.986;2023-10-08T00:36:45;98998.69;;;17.14;100.00
70815;BME280;58428;49.478;10.986;2023-10-08T00:39:11;98990.50;;;17.14;100.00
70815;BME280;58428;49.478;10.986;2023-10-08T00:41:48;98986.88;;;17.10;100.00
70815;BME280;58428;49.478;10.986;2023-10-08T00:44:14;98999.44;;;17.11;100.00
70815;BME280;58428;49.478;10.986;2023-10-08T00:46:56;99002.16;;;17.11;100.00
70815;BME280;58428;49.478;10.986;2023-10-08T00:49:23;99001.78;;;17.13;100.00
70815;BME280;58428;49.478;10.986;2023-10-08T00:52:14;99003.38;;;17.14;100.00
70815;BME280;58428;49.478;10.986;2023-10-08T00:54:41;99008.41;;;17.12;100.00
70815;BME280;58428;49.478;10.986;2023-10-08T00:57:27;99011.16;;;17.12;100.00
70815;BME280;58428;49.478;10.986;2023-10-08T00:59:56;99014.22;;;17.10;100.00
70815;BME280;58428;49.478;10.986;2023-10-08T01:02:28;99006.75;;;17.07;100.00
70815;BME280;58428;49.478;10.986;2023-10-08T01:04:55;99008.22;;;17.05;100.00
70815;BME280;58428;49.478;10.986;2023-10-08T01:07:21;99005.78;;;17.00;100.00
70815;BME280;58428;49.478;10.986;2023-10-08T01:09:49;99005.69;;;16.96;100.00
70815;BME280;58428;49.478;10.986;2023-10-08T01:12:26;99007.19;;;16.94;100.00
70815;BME280;58428;49.478;10.986;2023-10-08T01:15:11;99007.44;;;16.89;100.00
70815;BME280;58428;49.478;10.986;2023-10-08T01:17:50;99007.00;;;16.87;100.00
70815;BME280;58428;49.478;10.986;2023-10-08T01:20:40;99003.03;;;16.85;100.00
70815;BME280;58428;49.478;10.986;2023-10-08T01:23:29;99001.72;;;16.79;100.00
70815;BME280;58428;49.478;10.986;2023-10-08T01:25:57;99001.97;;;16.74;100.00
70815;BME280;58428;49.478;10.986;2023-10-08T01:28:38;99007.41;;;16.74;100.00
70815;BME280;58428;49.478;10.986;2023-10-08T01:31:05;99008.94;;;16.71;100.00
70815;BME280;58428;49.478;10.986;2023-10-08T01:33:32;99018.28;;;16.70;100.00
70815;BME280;58428;49.478;10.986;2023-10-08T01:36:03;99011.66;;;16.71;100.00
70815;BME280;58428;49.478;10.986;2023-10-08T01:38:33;99015.63;;;16.74;100.00
70815;BME280;58428;49.478;10.986;2023-10-08T01:40:59;99007.09;;;16.75;100.00
70815;BME280;58428;49.478;10.986;2023-10-08T01:43:43;99014.50;;;16.75;100.00
70815;BME280;58428;49.478;10.986;2023-10-08T01:46:12;99005.94;;;16.76;100.00
70815;BME280;58428;49.478;10.986;2023-10-08T01:48:40;99006.28;;;16.75;100.00
70815;BME280;58428;49.478;10.986;2023-10-08T01:51:08;99013.72;;;16.74;100.00
70815;BME280;58428;49.478;10.986;2023-10-08T01:53:40;99003.56;;;16.75;100.00
70815;BME280;58428;49.478;10.986;2023-10-08T01:56:06;99005.50;;;16.74;100.00
70815;BME280;58428;49.478;10.986;2023-10-08T01:58:35;98999.22;;;16.74;100.00
70815;BME280;58428;49.478;10.986;2023-10-08T02:01:02;98994.91;;;16.73;100.00
70815;BME280;58428;49.478;10.986;2023-10-08T02:03:31;98997.66;;;16.73;100.00
70815;BME280;58428;49.478;10.986;2023-10-08T02:05:56;98996.88;;;16.72;100.00
70815;BME280;58428;49.478;10.986;2023-10-08T02:08:25;99001.06;;;16.70;100.00
70815;BME280;58428;49.478;10.986;2023-10-08T02:10:56;99011.56;;;16.68;100.00
70815;BME280;58428;49.478;10.986;2023-10-08T02:13:22;98997.13;;;16.67;100.00
70815;BME280;58428;49.478;10.986;2023-10-08T02:15:50;98998.19;;;16.63;100.00
70815;BME280;58428;49.478;10.986;2023-10-08T02:18:19;98988.38;;;16.62;100.00
70815;BME280;58428;49.478;10.986;2023-10-08T02:20:46;99005.56;;;16.62;100.00
70815;BME280;58428;49.478;10.986;2023-10-08T02:23:16;98999.75;;;16.64;100.00
70815;BME280;58428;49.478;10.986;2023-10-08T02:25:44;99001.69;;;16.63;100.00
70815;BME280;58428;49.478;10.986;2023-10-08T02:28:10;98997.00;;;16.64;100.00
70815;BME280;58428;49.478;10.986;2023-10-08T02:30:38;99004.44;;;16.63;100.00
70815;BME280;58428;49.478;10.986;2023-10-08T02:33:05;99018.09;;;16.63;100.00
70815;BME280;58428;49.478;10.986;2023-10-08T02:35:48;99015.34;;;16.63;100.00
70815;BME280;58428;49.478;10.986;2023-10-08T02:38:17;99024.34;;;16.64;100.00
70815;BME280;58428;49.478;10.986;2023-10-08T02:40:43;99010.69;;;16.64;100.00
70815;BME280;58428;49.478;10.986;2023-10-08T02:43:14;99007.16;;;16.63;100.00
70815;BME280;58428;49.478;10.986;2023-10-08T02:45:41;99010.94;;;16.59;100.00
70815;BME280;58428;49.478;10.986;2023-10-08T02:48:15;99017.97;;;16.60;100.00
70815;BME280;58428;49.478;10.986;2023-10-08T02:50:43;99024.25;;;16.60;100.00
70815;BME280;58428;49.478;10.986;2023-10-08T02:53:11;99035.16;;;16.60;100.00
70815;BME280;58428;49.478;10.986;2023-10-08T02:55:38;99028.56;;;16.61;100.00
70815;BME280;58428;49.478;10.986;2023-10-08T02:58:10;99027.69;;;16.58;100.00
70815;BME280;58428;49.478;10.986;2023-10-08T03:00:43;99030.75;;;16.56;100.00
70815;BME280;58428;49.478;10.986;2023-10-08T03:03:12;99024.84;;;16.54;100.00
70815;BME280;58428;49.478;10.986;2023-10-08T03:05:52;99022.47;;;16.53;100.00
70815;BME280;58428;49.478;10.986;2023-10-08T03:08:18;99019.72;;;16.53;100.00
70815;BME280;58428;49.478;10.986;2023-10-08T03:10:52;99021.22;;;16.50;100.00
70815;BME280;58428;49.478;10.986;2023-10-08T03:13:22;99027.94;;;16.53;100.00
70815;BME280;58428;49.478;10.986;2023-10-08T03:15:51;99023.28;;;16.53;100.00
70815;BME280;58428;49.478;10.986;2023-10-08T03:18:26;99022.47;;;16.53;100.00
70815;BME280;58428;49.478;10.986;2023-10-08T03:20:59;99035.78;;;16.54;100.00
70815;BME280;58428;49.478;10.986;2023-10-08T03:23:28;99045.56;;;16.55;100.00
70815;BME280;58428;49.478;10.986;2023-10-08T03:26:03;99069.72;;;16.53;100.00
70815;BME280;58428;49.478;10.986;2023-10-08T03:28:58;99074.38;;;16.53;100.00
70815;BME280;58428;49.478;10.986;2023-10-08T03:31:24;99065.38;;;16.52;100.00
70815;BME280;58428;49.478;10.986;2023-10-08T03:34:13;99060.69;;;16.53;100.00
70815;BME280;58428;49.478;10.986;2023-10-08T03:36:41;99058.34;;;16.51;100.00
70815;BME280;58428;49.478;10.986;2023-10-08T03:39:11;99060.25;;;16.51;100.00
70815;BME280;58428;49.478;10.986;2023-10-08T03:41:38;99059.13;;;16.52;100.00
70815;BME280;58428;49.478;10.986;2023-10-08T03:44:06;99058.69;;;16.50;100.00
70815;BME280;58428;49.478;10.986;2023-10-08T03:46:37;99057.53;;;16.51;100.00
70815;BME280;58428;49.478;10.986;2023-10-08T03:49:12;99057.91;;;16.49;100.00
70815;BME280;58428;49.478;10.986;2023-10-08T03:51:47;99059.81;;;16.49;100.00
70815;BME280;58428;49.478;10.986;2023-10-08T03:54:13;99057.91;;;16.49;100.00
70815;BME280;58428;49.478;10.986;2023-10-08T03:56:44;99066.09;;;16.49;100.00
70815;BME280;58428;49.478;10.986;2023-10-08T03:59:17;99064.94;;;16.50;100.00
70815;BME280;58428;49.478;10.986;2023-10-08T04:01:58;99062.19;;;16.50;100.00
70815;BME280;58428;49.478;10.986;2023-10-08T04:04:41;99072.34;;;16.50;100.00
70815;BME280;58428;49.478;10.986;2023-10-08T04:07:24;99083.28;;;16.50;100.00
70815;BME280;58428;49.478;10.986;2023-10-08T04:10:19;99076.66;;;16.51;100.00
70815;BME280;58428;49.478;10.986;2023-10-08T04:13:15;99089.19;;;16.52;100.00
70815;BME280;58428;49.478;10.986;2023-10-08T04:15:41;99084.06;;;16.50;100.00
70815;BME280;58428;49.478;10.986;2023-10-08T04:18:11;99092.16;;;16.47;100.00
70815;BME280;58428;49.478;10.986;2023-10-08T04:20:40;99095.59;;;16.44;100.00
70815;BME280;58428;49.478;10.986;2023-10-08T04:23:26;99099.25;;;16.36;100.00
70815;BME280;58428;49.478;10.986;2023-10-08T04:25:52;99106.19;;;16.33;100.00
70815;BME280;58428;49.478;10.986;2023-10-08T04:28:22;99112.34;;;16.30;100.00
70815;BME280;58428;49.478;10.986;2023-10-08T04:30:51;99107.25;;;16.29;100.00
70815;BME280;58428;49.478;10.986;2023-10-08T04:33:17;99104.50;;;16.29;100.00
70815;BME280;58428;49.478;10.986;2023-10-08T04:35:44;99097.81;;;16.26;100.00
70815;BME280;58428;49.478;10.986;2023-10-08T04:38:18;99092.69;;;16.25;100.00
70815;BME280;58428;49.478;10.986;2023-10-08T04:40:44;99102.81;;;16.24;100.00
70815;BME280;58428;49.478;10.986;2023-10-08T04:43:23;99086.09;;;16.26;100.00
70815;BME280;58428;49.478;10.986;2023-10-08T04:45:57;99082.56;;;16.25;100.00
70815;BME280;58428;49.478;10.986;2023-10-08T04:48:24;99086.88;;;16.26;100.00
70815;BME280;58428;49.478;10.986;2023-10-08T04:50:51;99089.63;;;16.26;100.00
70815;BME280;58428;49.478;10.986;2023-10-08T04:53:25;99085.84;;;16.31;100.00
70815;BME280;58428;49.478;10.986;2023-10-08T04:55:57;99094.03;;;16.31;100.00
70815;BME280;58428;49.478;10.986;2023-10-08T04:58:23;99095.63;;;16.32;100.00
70815;BME280;58428;49.478;10.986;2023-10-08T05:00:59;99097.22;;;16.33;100.00
70815;BME280;58428;49.478;10.986;2023-10-08T05:03:43;99100.72;;;16.33;100.00
70815;BME280;58428;49.478;10.986;2023-10-08T05:06:20;99083.31;;;16.38;100.00
70815;BME280;58428;49.478;10.986;2023-10-08T05:09:10;99078.66;;;16.38;100.00
70815;BME280;58428;49.478;10.986;2023-10-08T05:11:37;99092.31;;;16.38;100.00
70815;BME280;58428;49.478;10.986;2023-10-08T05:14:31;99093.44;;;16.37;100.00
70815;BME280;58428;49.478;10.986;2023-10-08T05:16:57;99076.59;;;16.35;100.00
70815;BME280;58428;49.478;10.986;2023-10-08T05:19:34;99068.41;;;16.35;100.00
70815;BME280;58428;49.478;10.986;2023-10-08T05:22:14;99057.03;;;16.33;100.00
70815;BME280;58428;49.478;10.986;2023-10-08T05:24:47;99058.97;;;16.33;100.00
70815;BME280;58428;49.478;10.986;2023-10-08T05:27:33;99064.44;;;16.33;100.00
70815;BME280;58428;49.478;10.986;2023-10-08T05:30:19;99061.72;;;16.33;100.00
70815;BME280;58428;49.478;10.986;2023-10-08T05:32:59;99053.50;;;16.33;100.00
70815;BME280;58428;49.478;10.986;2023-10-08T05:35:45;99057.03;;;16.33;100.00
70815;BME280;58428;49.478;10.986;2023-10-08T05:38:11;99045.78;;;16.35;100.00
70815;BME280;58428;49.478;10.986;2023-10-08T05:41:04;99053.50;;;16.33;100.00
70815;BME280;58428;49.478;10.986;2023-10-08T05:43:35;99053.84;;;16.31;100.00
70815;BME280;58428;49.478;10.986;2023-10-08T05:46:17;99053.84;;;16.31;100.00
70815;BME280;58428;49.478;10.986;2023-10-08T05:51:38;99051.94;;;16.32;100.00
70815;BME280;58428;49.478;10.986;2023-10-08T05:54:14;99046.38;;;16.28;100.00
70815;BME280;58428;49.478;10.986;2023-10-08T05:56:53;99050.69;;;16.29;100.00
70815;BME280;58428;49.478;10.986;2023-10-08T06:02:39;99048.84;;;16.33;100.00
70815;BME280;58428;49.478;10.986;2023-10-08T06:05:12;99038.72;;;16.34;100.00
70815;BME280;58428;49.478;10.986;2023-10-08T06:10:18;99047.09;;;16.41;100.00
70815;BME280;58428;49.478;10.986;2023-10-08T06:15:56;99084.22;;;16.42;100.00
70815;BME280;58428;49.478;10.986;2023-10-08T06:18:27;99079.88;;;16.41;100.00
70815;BME280;58428;49.478;10.986;2023-10-08T06:20:56;99069.75;;;16.41;100.00
70815;BME280;58428;49.478;10.986;2023-10-08T06:23:24;99080.00;;;16.44;100.00
70815;BME280;58428;49.478;10.986;2023-10-08T06:25:51;99071.78;;;16.44;100.00
70815;BME280;58428;49.478;10.986;2023-10-08T06:28:24;99089.78;;;16.45;100.00
70815;BME280;58428;49.478;10.986;2023-10-08T06:30:53;99079.66;;;16.46;100.00
70815;BME280;58428;49.478;10.986;2023-10-08T06:33:23;99081.22;;;16.47;100.00
70815;BME280;58428;49.478;10.986;2023-10-08T06:36:04;99083.28;;;16.50;100.00
70815;BME280;58428;49.478;10.986;2023-10-08T06:38:44;99087.94;;;16.49;100.00
70815;BME280;58428;49.478;10.986;2023-10-08T06:41:12;99086.44;;;16.52;100.00
70815;BME280;58428;49.478;10.986;2023-10-08T06:43:38;99100.22;;;16.55;100.00
70815;BME280;58428;49.478;10.986;2023-10-08T06:46:05;99092.34;;;16.54;100.00
70815;BME280;58428;49.478;10.986;2023-10-08T06:48:33;99085.84;;;16.58;100.00
70815;BME280;58428;49.478;10.986;2023-10-08T06:51:00;99085.16;;;16.61;100.00
70815;BME280;58428;49.478;10.986;2023-10-08T06:53:42;99082.06;;;16.62;100.00
70815;BME280;58428;49.478;10.986;2023-10-08T06:56:10;99087.97;;;16.64;100.00
70815;BME280;58428;49.478;10.986;2023-10-08T06:58:38;99082.94;;;16.66;100.00
70815;BME280;58428;49.478;10.986;2023-10-08T07:01:03;99095.25;;;16.72;100.00
70815;BME280;58428;49.478;10.986;2023-10-08T07:03:35;99087.22;;;16.79;100.00
70815;BME280;58428;49.478;10.986;2023-10-08T07:06:01;99095.25;;;16.88;100.00
70815;BME280;58428;49.478;10.986;2023-10-08T07:08:43;99118.56;;;16.97;100.00
70815;BME280;58428;49.478;10.986;2023-10-08T07:11:13;99118.56;;;17.12;100.00
70815;BME280;58428;49.478;10.986;2023-10-08T07:13:40;99111.75;;;17.18;100.00
70815;BME280;58428;49.478;10.986;2023-10-08T07:16:08;99110.88;;;17.30;100.00
70815;BME280;58428;49.478;10.986;2023-10-08T07:18:38;99130.38;;;17.43;100.00
70815;BME280;58428;49.478;10.986;2023-10-08T07:21:04;99123.31;;;17.42;100.00
70815;BME280;58428;49.478;10.986;2023-10-08T07:23:38;99121.13;;;17.48;100.00
70815;BME280;58428;49.478;10.986;2023-10-08T07:26:25;99123.22;;;17.54;100.00
70815;BME280;58428;49.478;10.986;2023-10-08T07:28:53;99126.84;;;17.58;100.00
70815;BME280;58428;49.478;10.986;2023-10-08T07:31:20;99135.22;;;17.65;100.00
70815;BME280;58428;49.478;10.986;2023-10-08T07:33:50;99136.91;;;17.54;100.00
70815;BME280;58428;49.478;10.986;2023-10-08T07:36:23;99164.38;;;17.58;100.00
70815;BME280;58428;49.478;10.986;2023-10-08T07:38:51;99172.75;;;17.65;100.00
70815;BME280;58428;49.478;10.986;2023-10-08T07:41:18;99178.06;;;17.73;100.00
70815;BME280;58428;49.478;10.986;2023-10-08T07:43:49;99165.75;;;17.82;100.00
70815;BME280;58428;49.478;10.986;2023-10-08T07:46:22;99163.81;;;17.98;100.00
70815;BME280;58428;49.478;10.986;2023-10-08T07:48:47;99163.19;;;18.05;100.00
70815;BME280;58428;49.478;10.986;2023-10-08T07:51:16;99162.56;;;18.11;100.00
70815;BME280;58428;49.478;10.986;2023-10-08T07:53:48;99167.78;;;18.16;100.00
70815;BME280;58428;49.478;10.986;2023-10-08T07:56:15;99167.66;;;18.28;100.00
70815;BME280;58428;49.478;10.986;2023-10-08T07:58:43;99170.72;;;18.42;100.00
70815;BME280;58428;49.478;10.986;2023-10-08T08:01:11;99185.88;;;18.54;100.00
70815;BME280;58428;49.478;10.986;2023-10-08T08:03:40;99187.06;;;18.72;100.00
70815;BME280;58428;49.478;10.986;2023-10-08T08:06:07;99204.16;;;18.84;100.00
70815;BME280;58428;49.478;10.986;2023-10-08T08:08:36;99208.78;;;18.80;100.00
70815;BME280;58428;49.478;10.986;2023-10-08T08:11:06;99220.16;;;18.82;100.00
70815;BME280;58428;49.478;10.986;2023-10-08T08:13:39;99223.66;;;18.80;100.00
70815;BME280;58428;49.478;10.986;2023-10-08T08:16:10;99221.81;;;18.87;100.00
70815;BME280;58428;49.478;10.986;2023-10-08T08:18:51;99208.94;;;18.87;100.00
70815;BME280;58428;49.478;10.986;2023-10-08T08:21:19;99208.50;;;18.85;100.00
70815;BME280;58428;49.478;10.986;2023-10-08T08:23:46;99216.03;;;18.73;100.00
70815;BME280;58428;49.478;10.986;2023-10-08T08:26:24;99204.72;;;18.75;100.00
70815;BME280;58428;49.478;10.986;2023-10-08T08:28:55;99197.09;;;18.83;100.00
70815;BME280;58428;49.478;10.986;2023-10-08T08:31:25;99200.31;;;18.89;100.00
70815;BME280;58428;49.478;10.986;2023-10-08T08:33:51;99198.03;;;19.10;100.00
70815;BME280;58428;49.478;10.986;2023-10-08T08:36:35;99192.22;;;19.33;100.00
70815;BME280;58428;49.478;10.986;2023-10-08T08:39:04;99173.34;;;19.51;100.00
70815;BME280;58428;49.478;10.986;2023-10-08T08:41:31;99176.34;;;19.64;100.00
70815;BME280;58428;49.478;10.986;2023-10-08T08:44:02;99177.94;;;19.88;100.00
70815;BME280;58428;49.478;10.986;2023-10-08T08:46:36;99167.22;;;20.05;100.00
70815;BME280;58428;49.478;10.986;2023-10-08T08:49:08;99173.06;;;20.00;100.00
70815;BME280;58428;49.478;10.986;2023-10-08T08:51:35;99170.13;;;19.90;100.00
70815;BME280;58428;49.478;10.986;2023-10-08T08:54:05;99157.72;;;19.77;100.00
70815;BME280;58428;49.478;10.986;2023-10-08T08:56:34;99156.69;;;19.62;100.00
70815;BME280;58428;49.478;10.986;2023-10-08T08:59:06;99151.03;;;19.52;100.00
70815;BME280;58428;49.478;10.986;2023-10-08T09:01:33;99147.25;;;19.38;100.00
70815;BME280;58428;49.478;10.986;2023-10-08T09:04:04;99143.88;;;19.25;100.00
70815;BME280;58428;49.478;10.986;2023-10-08T09:06:36;99144.91;;;19.17;100.00
70815;BME280;58428;49.478;10.986;2023-10-08T09:09:07;99141.72;;;19.16;100.00
70815;BME280;58428;49.478;10.986;2023-10-08T09:11:50;99157.41;;;18.96;100.00
70815;BME280;58428;49.478;10.986;2023-10-08T09:14:23;99160.00;;;18.89;100.00
70815;BME280;58428;49.478;10.986;2023-10-08T09:16:56;99163.44;;;18.86;100.00
70815;BME280;58428;49.478;10.986;2023-10-08T09:19:23;99165.09;;;18.91;100.00
70815;BME280;58428;49.478;10.986;2023-10-08T09:22:06;99177.16;;;18.86;100.00
70815;BME280;58428;49.478;10.986;2023-10-08T09:24:40;99190.53;;;18.88;100.00
70815;BME280;58428;49.478;10.986;2023-10-08T09:27:19;99205.81;;;18.89;100.00
70815;BME280;58428;49.478;10.986;2023-10-08T09:30:17;99206.47;;;18.82;100.00
70815;BME280;58428;49.478;10.986;2023-10-08T09:32:53;99224.72;;;18.94;100.00
70815;BME280;58428;49.478;10.986;2023-10-08T09:35:24;99228.97;;;19.07;100.00
70815;BME280;58428;49.478;10.986;2023-10-08T09:37:54;99226.13;;;19.22;100.00
70815;BME280;58428;49.478;10.986;2023-10-08T09:40:20;99220.69;;;19.44;100.00
70815;BME280;58428;49.478;10.986;2023-10-08T09:42:47;99227.06;;;19.70;100.00
70815;BME280;58428;49.478;10.986;2023-10-08T09:45:16;99230.56;;;19.90;100.00
70815;BME280;58428;49.478;10.986;2023-10-08T09:47:52;99226.16;;;20.07;100.00
70815;BME280;58428;49.478;10.986;2023-10-08T09:50:25;99220.84;;;20.18;100.00
70815;BME280;58428;49.478;10.986;2023-10-08T09:53:09;99234.94;;;20.16;100.00
70815;BME280;58428;49.478;10.986;2023-10-08T09:58:38;99228.38;;;20.24;100.00
70815;BME280;58428;49.478;10.986;2023-10-08T10:01:08;99235.13;;;20.27;100.00
70815;BME280;58428;49.478;10.986;2023-10-08T10:03:38;99242.56;;;20.26;100.00
70815;BME280;58428;49.478;10.986;2023-10-08T10:06:29;99248.47;;;20.28;100.00
70815;BME280;58428;49.478;10.986;2023-10-08T10:08:57;99235.28;;;20.37;100.00
70815;BME280;58428;49.478;10.986;2023-10-08T10:11:31;99247.00;;;20.34;100.00
70815;BME280;58428;49.478;10.986;2023-10-08T10:14:02;99258.31;;;20.29;100.00
70815;BME280;58428;49.478;10.986;2023-10-08T10:16:30;99244.56;;;20.29;100.00
70815;BME280;58428;49.478;10.986;2023-10-08T10:18:59;99242.19;;;20.28;100.00
70815;BME280;58428;49.478;10.986;2023-10-08T10:21:33;99246.41;;;20.22;100.00
70815;BME280;58428;49.478;10.986;2023-10-08T10:23:59;99243.94;;;20.13;100.00
70815;BME280;58428;49.478;10.986;2023-10-08T10:26:35;99234.88;;;20.13;100.00
70815;BME280;58428;49.478;10.986;2023-10-08T10:31:40;99250.63;;;20.16;100.00
70815;BME280;58428;49.478;10.986;2023-10-08T10:34:11;99231.47;;;20.19;100.00
70815;BME280;58428;49.478;10.986;2023-10-08T10:36:42;99220.28;;;20.09;100.00
70815;BME280;58428;49.478;10.986;2023-10-08T10:39:09;99227.63;;;20.01;100.00
70815;BME280;58428;49.478;10.986;2023-10-08T10:41:47;99224.75;;;19.94;100.00
70815;BME280;58428;49.478;10.986;2023-10-08T10:44:15;99225.97;;;19.97;100.00
70815;BME280;58428;49.478;10.986;2023-10-08T10:46:45;99209.81;;;19.92;100.00
70815;BME280;58428;49.478;10.986;2023-10-08T10:49:20;99221.94;;;19.91;100.00
70815;BME280;58428;49.478;10.986;2023-10-08T10:52:01;99219.34;;;19.98;100.00
70815;BME280;58428;49.478;10.986;2023-10-08T10:54:30;99245.09;;;19.90;100.00
70815;BME280;58428;49.478;10.986;2023-10-08T10:57:02;99246.50;;;19.81;100.00
70815;BME280;58428;49.478;10.986;2023-10-08T10:59:43;99247.50;;;19.73;100.00
70815;BME280;58428;49.478;10.986;2023-10-08T11:02:18;99256.78;;;19.65;100.00
70815;BME280;58428;49.478;10.986;2023-10-08T11:05:08;99254.81;;;19.65;100.00
70815;BME280;58428;49.478;10.986;2023-10-08T11:07:45;99255.31;;;19.71;100.00
70815;BME280;58428;49.478;10.986;2023-10-08T11:10:15;99258.16;;;19.78;100.00
70815;BME280;58428;49.478;10.986;2023-10-08T11:13:05;99262.75;;;19.70;100.00
70815;BME280;58428;49.478;10.986;2023-10-08T11:15:40;99259.06;;;19.82;100.00
70815;BME280;58428;49.478;10.986;2023-10-08T11:18:16;99266.22;;;19.86;100.00
70815;BME280;58428;49.478;10.986;2023-10-08T11:20:42;99240.88;;;19.96;100.00
70815;BME280;58428;49.478;10.986;2023-10-08T11:23:35;99214.75;;;20.05;100.00
70815;BME280;58428;49.478;10.986;2023-10-08T11:26:03;99213.94;;;20.05;100.00
70815;BME280;58428;49.478;10.986;2023-10-08T11:28:59;99225.53;;;20.17;100.00
70815;BME280;58428;49.478;10.986;2023-10-08T11:31:27;99219.41;;;20.27;100.00
70815;BME280;58428;49.478;10.986;2023-10-08T11:34:00;99229.84;;;20.40;100.00
70815;BME280;58428;49.478;10.986;2023-10-08T11:36:28;99252.09;;;20.58;100.00
70815;BME280;58428;49.478;10.986;2023-10-08T11:39:09;99247.97;;;20.45;100.00
70815;BME280;58428;49.478;10.986;2023-10-08T11:41:35;99254.81;;;20.32;100.00
70815;BME280;58428;49.478;10.986;2023-10-08T11:44:15;99268.56;;;20.32;100.00
70815;BME280;58428;49.478;10.986;2023-10-08T11:46:45;99275.06;;;20.21;100.00
70815;BME280;58428;49.478;10.986;2023-10-08T11:49:16;99275.09;;;20.24;100.00
70815;BME280;58428;49.478;10.986;2023-10-08T11:51:56;99277.50;;;20.26;100.00
70815;BME280;58428;49.478;10.986;2023-10-08T11:54:22;99284.94;;;20.25;100.00
70815;BME280;58428;49.478;10.986;2023-10-08T11:56:49;99291.09;;;20.19;100.00
70815;BME280;58428;49.478;10.986;2023-10-08T11:59:15;99280.44;;;20.14;100.00
70815;BME280;58428;49.478;10.986;2023-10-08T12:01:47;99278.34;;;20.29;100.00
70815;BME280;58428;49.478;10.986;2023-10-08T12:04:13;99280.03;;;20.37;100.00
70815;BME280;58428;49.478;10.986;2023-10-08T12:06:42;99263.53;;;20.60;100.00
70815;BME280;58428;49.478;10.986;2023-10-08T12:09:13;99262.00;;;20.62;100.00
70815;BME280;58428;49.478;10.986;2023-10-08T12:11:38;99259.53;;;20.57;100.00
70815;BME280;58428;49.478;10.986;2023-10-08T12:14:05;99260.25;;;20.76;100.00
70815;BME280;58428;49.478;10.986;2023-10-08T12:16:30;99254.72;;;20.73;100.00
70815;BME280;58428;49.478;10.986;2023-10-08T12:19:01;99248.16;;;20.59;100.00
70815;BME280;58428;49.478;10.986;2023-10-08T12:21:28;99242.91;;;20.72;100.00
70815;BME280;58428;49.478;10.986;2023-10-08T12:23:58;99240.63;;;20.78;100.00
70815;BME280;58428;49.478;10.986;2023-10-08T12:26:24;99236.31;;;20.80;100.00
70815;BME280;58428;49.478;10.986;2023-10-08T12:28:50;99223.38;;;20.81;100.00
70815;BME280;58428;49.478;10.986;2023-10-08T12:31:19;99232.59;;;20.66;100.00
70815;BME280;58428;49.478;10.986;2023-10-08T12:33:52;99233.31;;;20.63;100.00
70815;BME280;58428;49.478;10.986;2023-10-08T12:36:22;99244.09;;;20.49;100.00
70815;BME280;58428;49.478;10.986;2023-10-08T12:38:50;99260.06;;;20.40;100.00
70815;BME280;58428;49.478;10.986;2023-10-08T12:41:29;99266.00;;;20.42;100.00
70815;BME280;58428;49.478;10.986;2023-10-08T12:43:56;99264.59;;;20.29;100.00
70815;BME280;58428;49.478;10.986;2023-10-08T12:46:23;99271.69;;;20.30;100.00
70815;BME280;58428;49.478;10.986;2023-10-08T12:48:52;99272.84;;;20.29;100.00
70815;BME280;58428;49.478;10.986;2023-10-08T12:51:27;99266.19;;;20.30;100.00
70815;BME280;58428;49.478;10.986;2023-10-08T12:53:57;99269.31;;;20.29;100.00
70815;BME280;58428;49.478;10.986;2023-10-08T12:56:37;99274.38;;;20.27;100.00
70815;BME280;58428;49.478;10.986;2023-10-08T12:59:15;99270.44;;;20.25;100.00
70815;BME280;58428;49.478;10.986;2023-10-08T13:01:47;99265.88;;;20.35;100.00
70815;BME280;58428;49.478;10.986;2023-10-08T13:04:20;99268.75;;;20.42;100.00
70815;BME280;58428;49.478;10.986;2023-10-08T13:06:58;99262.91;;;20.47;100.00
70815;BME280;58428;49.478;10.986;2023-10-08T13:09:35;99264.81;;;20.43;100.00
70815;BME280;58428;49.478;10.986;2023-10-08T13:12:03;99256.16;;;20.41;100.00
70815;BME280;58428;49.478;10.986;2023-10-08T13:14:31;99260.94;;;20.44;100.00
70815;BME280;58428;49.478;10.986;2023-10-08T13:17:00;99270.25;;;20.40;100.00
70815;BME280;58428;49.478;10.986;2023-10-08T13:19:26;99264.97;;;20.28;100.00
70815;BME280;58428;49.478;10.986;2023-10-08T13:21:51;99269.22;;;20.00;100.00
70815;BME280;58428;49.478;10.986;2023-10-08T14:10:00;99248.69;;;20.64;100.00